sensor_id;sensor_type;location;lat;lon;timestamp;P1;durP1;ratioP1;P2;durP2;ratioP2
50309;SDS011;36207;51.850;21.698;2022-08-03T00:01:04;12.30;;;8.00;;
50309;SDS011;36207;51.850;21.698;2022-08-03T00:03:31;10.80;;;8.40;;
50309;SDS011;36207;51.850;21.698;2022-08-03T00:05:58;14.10;;;8.30;;
50309;SDS011;36207;51.850;21.698;2022-08-03T00:08:24;11.50;;;8.20;;
50309;SDS011;36207;51.850;21.698;2022-08-03T00:10:51;14.00;;;8.40;;
50309;SDS011;36207;51.850;21.698;2022-08-03T00:13:17;11.30;;;8.50;;
50309;SDS011;36207;51.850;21.698;2022-08-03T00:15:44;12.40;;;8.30;;
50309;SDS011;36207;51.850;21.698;2022-08-03T00:18:11;13.90;;;8.40;;
50309;SDS011;36207;51.850;21.698;2022-08-03T00:20:37;11.60;;;8.90;;
50309;SDS011;36207;51.850;21.698;2022-08-03T00:23:03;12.50;;;8.60;;
50309;SDS011;36207;51.850;21.698;2022-08-03T00:25:32;13.00;;;8.50;;
50309;SDS011;36207;51.850;21.698;2022-08-03T00:27:59;13.60;;;8.20;;
50309;SDS011;36207;51.850;21.698;2022-08-03T00:30:27;11.40;;;8.50;;
50309;SDS011;36207;51.850;21.698;2022-08-03T00:32:54;11.60;;;7.90;;
50309;SDS011;36207;51.850;21.698;2022-08-03T00:35:20;10.70;;;8.00;;
50309;SDS011;36207;51.850;21.698;2022-08-03T00:37:47;12.10;;;8.90;;
50309;SDS011;36207;51.850;21.698;2022-08-03T00:40:14;12.90;;;8.50;;
50309;SDS011;36207;51.850;21.698;2022-08-03T00:42:57;13.30;;;8.90;;
50309;SDS011;36207;51.850;21.698;2022-08-03T00:45:26;10.90;;;8.30;;
50309;SDS011;36207;51.850;21.698;2022-08-03T00:47:55;12.10;;;8.00;;
50309;SDS011;36207;51.850;21.698;2022-08-03T00:50:23;12.30;;;8.20;;
50309;SDS011;36207;51.850;21.698;2022-08-03T00:52:51;14.20;;;8.00;;
50309;SDS011;36207;51.850;21.698;2022-08-03T00:55:19;9.60;;;8.20;;
50309;SDS011;36207;51.850;21.698;2022-08-03T00:57:45;11.70;;;7.90;;
50309;SDS011;36207;51.850;21.698;2022-08-03T01:00:13;10.20;;;7.90;;
50309;SDS011;36207;51.850;21.698;2022-08-03T01:02:42;11.90;;;8.50;;
50309;SDS011;36207;51.850;21.698;2022-08-03T01:05:09;11.40;;;8.30;;
50309;SDS011;36207;51.850;21.698;2022-08-03T01:10:12;10.90;;;8.50;;
50309;SDS011;36207;51.850;21.698;2022-08-03T01:13:04;12.20;;;8.30;;
50309;SDS011;36207;51.850;21.698;2022-08-03T01:15:44;13.00;;;8.20;;
50309;SDS011;36207;51.850;21.698;2022-08-03T01:18:21;12.40;;;8.10;;
50309;SDS011;36207;51.850;21.698;2022-08-03T01:21:11;13.10;;;8.60;;
50309;SDS011;36207;51.850;21.698;2022-08-03T01:23:47;10.90;;;8.30;;
50309;SDS011;36207;51.850;21.698;2022-08-03T01:26:33;11.20;;;8.40;;
50309;SDS011;36207;51.850;21.698;2022-08-03T01:32:27;10.30;;;8.20;;
50309;SDS011;36207;51.850;21.698;2022-08-03T01:35:11;10.50;;;8.00;;
50309;SDS011;36207;51.850;21.698;2022-08-03T01:37:55;12.80;;;8.80;;
50309;SDS011;36207;51.850;21.698;2022-08-03T01:40:26;11.00;;;8.30;;
50309;SDS011;36207;51.850;21.698;2022-08-03T01:42:54;11.50;;;8.20;;
50309;SDS011;36207;51.850;21.698;2022-08-03T01:45:24;16.80;;;8.70;;
50309;SDS011;36207;51.850;21.698;2022-08-03T01:47:52;15.80;;;8.60;;
50309;SDS011;36207;51.850;21.698;2022-08-03T01:50:21;11.60;;;7.90;;
50309;SDS011;36207;51.850;21.698;2022-08-03T01:52:51;14.50;;;8.40;;
50309;SDS011;36207;51.850;21.698;2022-08-03T01:55:19;12.80;;;8.00;;
50309;SDS011;36207;51.850;21.698;2022-08-03T01:57:48;13.80;;;8.40;;
50309;SDS011;36207;51.850;21.698;2022-08-03T02:00:17;10.70;;;7.60;;
50309;SDS011;36207;51.850;21.698;2022-08-03T02:02:44;11.90;;;8.40;;
50309;SDS011;36207;51.850;21.698;2022-08-03T02:05:14;12.20;;;8.20;;
50309;SDS011;36207;51.850;21.698;2022-08-03T02:07:42;10.80;;;8.20;;
50309;SDS011;36207;51.850;21.698;2022-08-03T02:10:12;13.00;;;8.50;;
50309;SDS011;36207;51.850;21.698;2022-08-03T02:12:42;17.80;;;8.50;;
50309;SDS011;36207;51.850;21.698;2022-08-03T02:15:10;10.60;;;8.10;;
50309;SDS011;36207;51.850;21.698;2022-08-03T02:17:40;11.80;;;8.60;;
50309;SDS011;36207;51.850;21.698;2022-08-03T02:20:10;12.60;;;8.10;;
50309;SDS011;36207;51.850;21.698;2022-08-03T02:22:38;11.50;;;8.00;;
50309;SDS011;36207;51.850;21.698;2022-08-03T02:25:10;12.90;;;8.20;;
50309;SDS011;36207;51.850;21.698;2022-08-03T02:30:42;14.50;;;8.80;;
50309;SDS011;36207;51.850;21.698;2022-08-03T02:33:13;15.30;;;8.10;;
50309;SDS011;36207;51.850;21.698;2022-08-03T02:35:44;16.40;;;8.50;;
50309;SDS011;36207;51.850;21.698;2022-08-03T02:38:13;11.90;;;8.50;;
50309;SDS011;36207;51.850;21.698;2022-08-03T02:40:43;14.00;;;8.40;;
50309;SDS011;36207;51.850;21.698;2022-08-03T02:43:12;12.60;;;8.10;;
50309;SDS011;36207;51.850;21.698;2022-08-03T02:45:45;10.60;;;8.20;;
50309;SDS011;36207;51.850;21.698;2022-08-03T02:48:19;14.80;;;8.50;;
50309;SDS011;36207;51.850;21.698;2022-08-03T02:50:49;15.60;;;8.90;;
50309;SDS011;36207;51.850;21.698;2022-08-03T02:53:17;13.80;;;7.90;;
50309;SDS011;36207;51.850;21.698;2022-08-03T02:55:46;10.60;;;8.20;;
50309;SDS011;36207;51.850;21.698;2022-08-03T02:58:14;10.60;;;8.00;;
50309;SDS011;36207;51.850;21.698;2022-08-03T03:00:46;13.90;;;8.30;;
50309;SDS011;36207;51.850;21.698;2022-08-03T03:03:13;12.30;;;8.20;;
50309;SDS011;36207;51.850;21.698;2022-08-03T03:05:40;13.50;;;8.10;;
50309;SDS011;36207;51.850;21.698;2022-08-03T03:08:08;11.70;;;7.90;;
50309;SDS011;36207;51.850;21.698;2022-08-03T03:10:39;13.10;;;7.90;;
50309;SDS011;36207;51.850;21.698;2022-08-03T03:13:07;10.70;;;7.70;;
50309;SDS011;36207;51.850;21.698;2022-08-03T03:15:35;10.70;;;7.60;;
50309;SDS011;36207;51.850;21.698;2022-08-03T03:18:04;10.60;;;8.00;;
50309;SDS011;36207;51.850;21.698;2022-08-03T03:20:32;13.30;;;7.70;;
50309;SDS011;36207;51.850;21.698;2022-08-03T03:23:00;12.70;;;8.00;;
50309;SDS011;36207;51.850;21.698;2022-08-03T03:25:29;10.50;;;7.50;;
50309;SDS011;36207;51.850;21.698;2022-08-03T03:27:58;14.90;;;8.00;;
50309;SDS011;36207;51.850;21.698;2022-08-03T03:30:26;13.50;;;7.60;;
50309;SDS011;36207;51.850;21.698;2022-08-03T03:32:52;14.60;;;7.70;;
50309;SDS011;36207;51.850;21.698;2022-08-03T03:35:19;12.40;;;7.90;;
50309;SDS011;36207;51.850;21.698;2022-08-03T03:37:46;11.60;;;7.50;;
50309;SDS011;36207;51.850;21.698;2022-08-03T03:40:12;12.40;;;7.60;;
50309;SDS011;36207;51.850;21.698;2022-08-03T03:42:40;10.80;;;7.40;;
50309;SDS011;36207;51.850;21.698;2022-08-03T03:45:07;10.10;;;7.60;;
50309;SDS011;36207;51.850;21.698;2022-08-03T03:47:34;10.60;;;7.90;;
50309;SDS011;36207;51.850;21.698;2022-08-03T03:50:01;11.00;;;7.10;;
50309;SDS011;36207;51.850;21.698;2022-08-03T03:52:31;11.60;;;7.60;;
50309;SDS011;36207;51.850;21.698;2022-08-03T03:54:59;11.40;;;7.10;;
50309;SDS011;36207;51.850;21.698;2022-08-03T03:57:25;12.00;;;7.10;;
50309;SDS011;36207;51.850;21.698;2022-08-03T03:59:52;11.70;;;7.20;;
50309;SDS011;36207;51.850;21.698;2022-08-03T04:02:19;10.20;;;6.90;;
50309;SDS011;36207;51.850;21.698;2022-08-03T04:04:45;9.30;;;6.80;;
50309;SDS011;36207;51.850;21.698;2022-08-03T04:07:32;11.50;;;7.20;;
50309;SDS011;36207;51.850;21.698;2022-08-03T04:10:34;17.10;;;7.30;;
50309;SDS011;36207;51.850;21.698;2022-08-03T04:13:24;11.20;;;6.90;;
50309;SDS011;36207;51.850;21.698;2022-08-03T04:15:55;10.00;;;6.80;;
50309;SDS011;36207;51.850;21.698;2022-08-03T04:18:23;11.90;;;7.00;;
50309;SDS011;36207;51.850;21.698;2022-08-03T04:20:54;9.80;;;6.90;;
50309;SDS011;36207;51.850;21.698;2022-08-03T04:23:23;8.50;;;7.00;;
50309;SDS011;36207;51.850;21.698;2022-08-03T04:25:52;10.70;;;6.90;;
50309;SDS011;36207;51.850;21.698;2022-08-03T04:28:21;10.00;;;6.70;;
50309;SDS011;36207;51.850;21.698;2022-08-03T04:30:48;8.90;;;6.60;;
50309;SDS011;36207;51.850;21.698;2022-08-03T04:33:18;11.10;;;6.90;;
50309;SDS011;36207;51.850;21.698;2022-08-03T04:35:48;11.00;;;7.40;;
50309;SDS011;36207;51.850;21.698;2022-08-03T04:38:17;13.00;;;7.50;;
50309;SDS011;36207;51.850;21.698;2022-08-03T04:40:44;11.00;;;7.40;;
50309;SDS011;36207;51.850;21.698;2022-08-03T04:43:13;11.40;;;7.30;;
50309;SDS011;36207;51.850;21.698;2022-08-03T04:45:41;11.00;;;7.30;;
50309;SDS011;36207;51.850;21.698;2022-08-03T04:48:12;9.30;;;7.20;;
50309;SDS011;36207;51.850;21.698;2022-08-03T04:50:39;9.20;;;7.00;;
50309;SDS011;36207;51.850;21.698;2022-08-03T04:53:06;9.30;;;6.80;;
50309;SDS011;36207;51.850;21.698;2022-08-03T04:55:33;9.20;;;6.60;;
50309;SDS011;36207;51.850;21.698;2022-08-03T04:58:01;9.60;;;6.30;;
50309;SDS011;36207;51.850;21.698;2022-08-03T05:00:29;9.70;;;6.80;;
50309;SDS011;36207;51.850;21.698;2022-08-03T05:02:55;10.00;;;6.30;;
50309;SDS011;36207;51.850;21.698;2022-08-03T05:05:22;8.20;;;6.00;;
50309;SDS011;36207;51.850;21.698;2022-08-03T05:07:48;8.70;;;6.40;;
50309;SDS011;36207;51.850;21.698;2022-08-03T05:10:15;11.10;;;6.20;;
50309;SDS011;36207;51.850;21.698;2022-08-03T05:12:46;13.40;;;6.00;;
50309;SDS011;36207;51.850;21.698;2022-08-03T05:15:13;11.00;;;5.80;;
50309;SDS011;36207;51.850;21.698;2022-08-03T05:17:40;8.50;;;5.50;;
50309;SDS011;36207;51.850;21.698;2022-08-03T05:20:07;8.80;;;5.80;;
50309;SDS011;36207;51.850;21.698;2022-08-03T05:22:35;6.70;;;5.50;;
50309;SDS011;36207;51.850;21.698;2022-08-03T05:25:01;8.90;;;5.50;;
50309;SDS011;36207;51.850;21.698;2022-08-03T05:27:28;7.50;;;5.50;;
50309;SDS011;36207;51.850;21.698;2022-08-03T05:29:55;7.70;;;5.90;;
50309;SDS011;36207;51.850;21.698;2022-08-03T05:32:21;7.20;;;5.90;;
50309;SDS011;36207;51.850;21.698;2022-08-03T05:34:47;7.50;;;5.70;;
50309;SDS011;36207;51.850;21.698;2022-08-03T05:37:14;6.90;;;5.50;;
50309;SDS011;36207;51.850;21.698;2022-08-03T05:39:40;9.30;;;5.50;;
50309;SDS011;36207;51.850;21.698;2022-08-03T05:42:06;8.70;;;5.40;;
50309;SDS011;36207;51.850;21.698;2022-08-03T05:44:33;9.60;;;5.70;;
50309;SDS011;36207;51.850;21.698;2022-08-03T05:47:03;7.80;;;5.90;;
50309;SDS011;36207;51.850;21.698;2022-08-03T05:49:30;9.90;;;4.10;;
50309;SDS011;36207;51.850;21.698;2022-08-03T05:51:57;10.20;;;4.50;;
50309;SDS011;36207;51.850;21.698;2022-08-03T05:54:23;6.70;;;4.20;;
50309;SDS011;36207;51.850;21.698;2022-08-03T05:56:49;6.50;;;4.50;;
50309;SDS011;36207;51.850;21.698;2022-08-03T05:59:16;7.70;;;4.50;;
50309;SDS011;36207;51.850;21.698;2022-08-03T06:01:43;6.60;;;4.60;;
50309;SDS011;36207;51.850;21.698;2022-08-03T06:04:09;5.80;;;4.50;;
50309;SDS011;36207;51.850;21.698;2022-08-03T06:06:35;7.20;;;4.20;;
50309;SDS011;36207;51.850;21.698;2022-08-03T06:09:02;5.80;;;4.60;;
50309;SDS011;36207;51.850;21.698;2022-08-03T06:11:28;5.40;;;4.00;;
50309;SDS011;36207;51.850;21.698;2022-08-03T06:13:54;7.30;;;4.30;;
50309;SDS011;36207;51.850;21.698;2022-08-03T06:16:21;7.60;;;3.90;;
50309;SDS011;36207;51.850;21.698;2022-08-03T06:18:47;6.30;;;3.90;;
50309;SDS011;36207;51.850;21.698;2022-08-03T06:21:13;5.20;;;3.70;;
50309;SDS011;36207;51.850;21.698;2022-08-03T06:23:41;6.30;;;3.50;;
50309;SDS011;36207;51.850;21.698;2022-08-03T06:26:08;6.00;;;3.50;;
50309;SDS011;36207;51.850;21.698;2022-08-03T06:28:35;6.20;;;3.30;;
50309;SDS011;36207;51.850;21.698;2022-08-03T06:31:02;5.50;;;3.60;;
50309;SDS011;36207;51.850;21.698;2022-08-03T06:33:28;4.40;;;3.10;;
50309;SDS011;36207;51.850;21.698;2022-08-03T06:35:55;6.00;;;3.50;;
50309;SDS011;36207;51.850;21.698;2022-08-03T06:38:21;7.60;;;3.60;;
50309;SDS011;36207;51.850;21.698;2022-08-03T06:40:47;5.40;;;3.40;;
50309;SDS011;36207;51.850;21.698;2022-08-03T06:43:14;5.30;;;3.60;;
50309;SDS011;36207;51.850;21.698;2022-08-03T06:45:41;5.40;;;3.30;;
50309;SDS011;36207;51.850;21.698;2022-08-03T06:48:08;4.90;;;3.40;;
50309;SDS011;36207;51.850;21.698;2022-08-03T06:50:36;6.20;;;3.40;;
50309;SDS011;36207;51.850;21.698;2022-08-03T06:53:04;4.20;;;3.10;;
50309;SDS011;36207;51.850;21.698;2022-08-03T06:55:31;4.00;;;3.20;;
50309;SDS011;36207;51.850;21.698;2022-08-03T06:57:58;6.30;;;3.10;;
50309;SDS011;36207;51.850;21.698;2022-08-03T07:00:24;3.40;;;3.00;;
50309;SDS011;36207;51.850;21.698;2022-08-03T07:02:51;4.70;;;3.10;;
50309;SDS011;36207;51.850;21.698;2022-08-03T07:05:17;5.40;;;3.30;;
50309;SDS011;36207;51.850;21.698;2022-08-03T07:07:43;5.40;;;3.10;;
50309;SDS011;36207;51.850;21.698;2022-08-03T07:10:10;4.20;;;2.80;;
50309;SDS011;36207;51.850;21.698;2022-08-03T07:12:37;4.90;;;3.40;;
50309;SDS011;36207;51.850;21.698;2022-08-03T07:15:05;3.20;;;2.90;;
50309;SDS011;36207;51.850;21.698;2022-08-03T07:17:33;4.10;;;3.20;;
50309;SDS011;36207;51.850;21.698;2022-08-03T07:20:03;3.40;;;3.10;;
50309;SDS011;36207;51.850;21.698;2022-08-03T07:22:33;5.00;;;3.10;;
50309;SDS011;36207;51.850;21.698;2022-08-03T07:25:00;4.50;;;3.50;;
50309;SDS011;36207;51.850;21.698;2022-08-03T07:27:26;3.70;;;3.10;;
50309;SDS011;36207;51.850;21.698;2022-08-03T07:29:53;6.70;;;3.20;;
50309;SDS011;36207;51.850;21.698;2022-08-03T07:32:20;5.80;;;3.10;;
50309;SDS011;36207;51.850;21.698;2022-08-03T07:34:47;5.70;;;3.30;;
50309;SDS011;36207;51.850;21.698;2022-08-03T07:37:14;3.40;;;3.10;;
50309;SDS011;36207;51.850;21.698;2022-08-03T07:39:40;3.60;;;3.10;;
50309;SDS011;36207;51.850;21.698;2022-08-03T07:42:06;4.00;;;3.00;;
50309;SDS011;36207;51.850;21.698;2022-08-03T07:44:33;4.30;;;3.00;;
50309;SDS011;36207;51.850;21.698;2022-08-03T07:46:59;3.20;;;2.70;;
50309;SDS011;36207;51.850;21.698;2022-08-03T07:49:26;3.60;;;2.80;;
50309;SDS011;36207;51.850;21.698;2022-08-03T07:51:52;3.20;;;2.90;;
50309;SDS011;36207;51.850;21.698;2022-08-03T07:54:37;6.70;;;3.00;;
50309;SDS011;36207;51.850;21.698;2022-08-03T07:57:03;3.00;;;2.70;;
50309;SDS011;36207;51.850;21.698;2022-08-03T07:59:30;4.80;;;2.90;;
50309;SDS011;36207;51.850;21.698;2022-08-03T08:01:56;3.50;;;2.70;;
50309;SDS011;36207;51.850;21.698;2022-08-03T08:04:22;8.10;;;2.80;;
50309;SDS011;36207;51.850;21.698;2022-08-03T08:06:49;2.80;;;2.60;;
50309;SDS011;36207;51.850;21.698;2022-08-03T08:09:15;4.90;;;2.80;;
50309;SDS011;36207;51.850;21.698;2022-08-03T08:11:42;2.90;;;2.60;;
50309;SDS011;36207;51.850;21.698;2022-08-03T08:14:08;3.30;;;2.90;;
50309;SDS011;36207;51.850;21.698;2022-08-03T08:16:34;5.30;;;2.60;;
50309;SDS011;36207;51.850;21.698;2022-08-03T08:19:01;2.80;;;2.30;;
50309;SDS011;36207;51.850;21.698;2022-08-03T08:21:27;4.00;;;2.90;;
50309;SDS011;36207;51.850;21.698;2022-08-03T08:23:54;3.00;;;2.60;;
50309;SDS011;36207;51.850;21.698;2022-08-03T08:26:20;8.00;;;3.10;;
50309;SDS011;36207;51.850;21.698;2022-08-03T08:28:46;4.90;;;3.40;;
50309;SDS011;36207;51.850;21.698;2022-08-03T08:31:13;3.40;;;2.70;;
50309;SDS011;36207;51.850;21.698;2022-08-03T08:33:39;4.50;;;3.10;;
50309;SDS011;36207;51.850;21.698;2022-08-03T08:36:05;6.10;;;3.30;;
50309;SDS011;36207;51.850;21.698;2022-08-03T08:38:33;4.20;;;2.90;;
50309;SDS011;36207;51.850;21.698;2022-08-03T08:41:00;3.70;;;2.70;;
50309;SDS011;36207;51.850;21.698;2022-08-03T08:43:26;4.90;;;3.20;;
50309;SDS011;36207;51.850;21.698;2022-08-03T08:45:53;3.50;;;3.00;;
50309;SDS011;36207;51.850;21.698;2022-08-03T08:48:24;6.60;;;3.40;;
50309;SDS011;36207;51.850;21.698;2022-08-03T08:50:52;8.30;;;3.60;;
50309;SDS011;36207;51.850;21.698;2022-08-03T08:53:28;4.80;;;3.30;;
50309;SDS011;36207;51.850;21.698;2022-08-03T08:55:58;4.20;;;3.20;;
50309;SDS011;36207;51.850;21.698;2022-08-03T08:58:27;4.80;;;3.00;;
50309;SDS011;36207;51.850;21.698;2022-08-03T09:00:55;6.20;;;3.70;;
50309;SDS011;36207;51.850;21.698;2022-08-03T09:03:22;4.60;;;3.30;;
50309;SDS011;36207;51.850;21.698;2022-08-03T09:05:48;4.70;;;3.20;;
50309;SDS011;36207;51.850;21.698;2022-08-03T09:08:15;8.90;;;3.70;;
50309;SDS011;36207;51.850;21.698;2022-08-03T09:10:43;4.60;;;3.60;;
50309;SDS011;36207;51.850;21.698;2022-08-03T09:13:09;4.20;;;3.40;;
50309;SDS011;36207;51.850;21.698;2022-08-03T09:15:36;4.40;;;3.50;;
50309;SDS011;36207;51.850;21.698;2022-08-03T09:18:03;5.40;;;3.50;;
50309;SDS011;36207;51.850;21.698;2022-08-03T09:20:31;4.70;;;3.40;;
50309;SDS011;36207;51.850;21.698;2022-08-03T09:23:04;5.70;;;3.20;;
50309;SDS011;36207;51.850;21.698;2022-08-03T09:25:39;4.90;;;3.40;;
50309;SDS011;36207;51.850;21.698;2022-08-03T09:28:11;6.00;;;3.50;;
50309;SDS011;36207;51.850;21.698;2022-08-03T09:30:39;6.70;;;3.30;;
50309;SDS011;36207;51.850;21.698;2022-08-03T09:33:08;6.50;;;3.80;;
50309;SDS011;36207;51.850;21.698;2022-08-03T09:38:12;11.50;;;3.80;;
50309;SDS011;36207;51.850;21.698;2022-08-03T09:40:40;5.50;;;3.10;;
50309;SDS011;36207;51.850;21.698;2022-08-03T09:43:08;4.40;;;3.50;;
50309;SDS011;36207;51.850;21.698;2022-08-03T09:45:35;6.00;;;3.70;;
50309;SDS011;36207;51.850;21.698;2022-08-03T09:50:56;4.60;;;3.40;;
50309;SDS011;36207;51.850;21.698;2022-08-03T09:53:24;4.00;;;3.60;;
50309;SDS011;36207;51.850;21.698;2022-08-03T09:55:55;6.80;;;3.70;;
50309;SDS011;36207;51.850;21.698;2022-08-03T09:58:27;6.60;;;3.70;;
50309;SDS011;36207;51.850;21.698;2022-08-03T10:01:04;4.60;;;3.70;;
50309;SDS011;36207;51.850;21.698;2022-08-03T10:03:33;6.30;;;3.60;;
50309;SDS011;36207;51.850;21.698;2022-08-03T10:06:19;6.70;;;3.50;;
50309;SDS011;36207;51.850;21.698;2022-08-03T10:09:03;3.80;;;3.40;;
50309;SDS011;36207;51.850;21.698;2022-08-03T10:11:30;3.50;;;3.00;;
50309;SDS011;36207;51.850;21.698;2022-08-03T10:13:57;5.40;;;3.30;;
50309;SDS011;36207;51.850;21.698;2022-08-03T10:16:23;8.20;;;3.30;;
50309;SDS011;36207;51.850;21.698;2022-08-03T10:18:50;4.00;;;3.30;;
50309;SDS011;36207;51.850;21.698;2022-08-03T10:21:16;3.70;;;3.00;;
50309;SDS011;36207;51.850;21.698;2022-08-03T10:23:45;4.70;;;3.00;;
50309;SDS011;36207;51.850;21.698;2022-08-03T10:26:14;2.80;;;2.40;;
50309;SDS011;36207;51.850;21.698;2022-08-03T10:28:48;13.10;;;3.20;;
50309;SDS011;36207;51.850;21.698;2022-08-03T10:31:17;9.30;;;3.40;;
50309;SDS011;36207;51.850;21.698;2022-08-03T10:33:48;7.10;;;3.10;;
50309;SDS011;36207;51.850;21.698;2022-08-03T10:36:16;3.80;;;3.10;;
50309;SDS011;36207;51.850;21.698;2022-08-03T10:38:43;4.60;;;3.40;;
50309;SDS011;36207;51.850;21.698;2022-08-03T10:41:20;6.20;;;3.50;;
50309;SDS011;36207;51.850;21.698;2022-08-03T10:46:19;4.20;;;3.20;;
50309;SDS011;36207;51.850;21.698;2022-08-03T10:48:47;4.10;;;3.00;;
50309;SDS011;36207;51.850;21.698;2022-08-03T10:51:14;4.90;;;3.30;;
50309;SDS011;36207;51.850;21.698;2022-08-03T10:53:42;4.20;;;3.30;;
50309;SDS011;36207;51.850;21.698;2022-08-03T10:59:18;4.70;;;3.50;;
50309;SDS011;36207;51.850;21.698;2022-08-03T11:02:05;3.70;;;3.30;;
50309;SDS011;36207;51.850;21.698;2022-08-03T11:04:34;4.90;;;3.10;;
50309;SDS011;36207;51.850;21.698;2022-08-03T11:07:22;7.20;;;3.50;;
50309;SDS011;36207;51.850;21.698;2022-08-03T11:09:52;6.00;;;3.40;;
50309;SDS011;36207;51.850;21.698;2022-08-03T11:12:23;5.70;;;3.50;;
50309;SDS011;36207;51.850;21.698;2022-08-03T11:14:52;5.70;;;3.30;;
50309;SDS011;36207;51.850;21.698;2022-08-03T11:17:20;4.30;;;3.10;;
50309;SDS011;36207;51.850;21.698;2022-08-03T11:19:47;6.90;;;3.40;;
50309;SDS011;36207;51.850;21.698;2022-08-03T11:22:15;4.90;;;3.60;;
50309;SDS011;36207;51.850;21.698;2022-08-03T11:30:07;4.20;;;3.50;;
50309;SDS011;36207;51.850;21.698;2022-08-03T11:35:22;7.10;;;3.50;;
50309;SDS011;36207;51.850;21.698;2022-08-03T11:38:08;3.80;;;3.40;;
50309;SDS011;36207;51.850;21.698;2022-08-03T11:43:51;3.70;;;3.20;;
50309;SDS011;36207;51.850;21.698;2022-08-03T11:46:18;6.10;;;3.70;;
50309;SDS011;36207;51.850;21.698;2022-08-03T11:48:48;5.10;;;3.60;;
50309;SDS011;36207;51.850;21.698;2022-08-03T11:53:57;3.80;;;3.40;;
50309;SDS011;36207;51.850;21.698;2022-08-03T11:56:25;4.40;;;3.40;;
50309;SDS011;36207;51.850;21.698;2022-08-03T11:58:54;5.60;;;3.50;;
50309;SDS011;36207;51.850;21.698;2022-08-03T12:01:23;4.50;;;3.50;;
50309;SDS011;36207;51.850;21.698;2022-08-03T12:03:50;3.80;;;3.40;;
50309;SDS011;36207;51.850;21.698;2022-08-03T12:06:17;4.20;;;3.60;;
50309;SDS011;36207;51.850;21.698;2022-08-03T12:08:44;12.40;;;3.90;;
50309;SDS011;36207;51.850;21.698;2022-08-03T12:11:12;8.50;;;3.50;;
50309;SDS011;36207;51.850;21.698;2022-08-03T12:13:45;4.50;;;3.30;;
50309;SDS011;36207;51.850;21.698;2022-08-03T12:16:19;4.60;;;3.50;;
50309;SDS011;36207;51.850;21.698;2022-08-03T12:19:01;3.60;;;3.30;;
50309;SDS011;36207;51.850;21.698;2022-08-03T12:21:29;4.20;;;3.40;;
50309;SDS011;36207;51.850;21.698;2022-08-03T12:23:57;6.10;;;3.50;;
50309;SDS011;36207;51.850;21.698;2022-08-03T12:26:25;4.10;;;3.60;;
50309;SDS011;36207;51.850;21.698;2022-08-03T12:28:52;6.50;;;3.70;;
50309;SDS011;36207;51.850;21.698;2022-08-03T12:31:18;6.30;;;3.80;;
50309;SDS011;36207;51.850;21.698;2022-08-03T12:33:56;10.00;;;3.90;;
50309;SDS011;36207;51.850;21.698;2022-08-03T12:36:24;5.80;;;3.60;;
50309;SDS011;36207;51.850;21.698;2022-08-03T12:38:55;4.50;;;3.70;;
50309;SDS011;36207;51.850;21.698;2022-08-03T12:41:33;4.60;;;3.90;;
50309;SDS011;36207;51.850;21.698;2022-08-03T12:44:02;5.00;;;3.70;;
50309;SDS011;36207;51.850;21.698;2022-08-03T12:46:36;4.00;;;3.70;;
50309;SDS011;36207;51.850;21.698;2022-08-03T12:49:08;9.70;;;6.30;;
50309;SDS011;36207;51.850;21.698;2022-08-03T12:54:14;9.30;;;5.70;;
50309;SDS011;36207;51.850;21.698;2022-08-03T12:56:55;13.40;;;9.40;;
50309;SDS011;36207;51.850;21.698;2022-08-03T12:59:30;17.80;;;15.30;;
50309;SDS011;36207;51.850;21.698;2022-08-03T13:01:58;7.40;;;4.60;;
50309;SDS011;36207;51.850;21.698;2022-08-03T13:04:32;6.50;;;4.20;;
50309;SDS011;36207;51.850;21.698;2022-08-03T13:07:02;6.70;;;3.80;;
50309;SDS011;36207;51.850;21.698;2022-08-03T13:09:39;7.70;;;4.00;;
50309;SDS011;36207;51.850;21.698;2022-08-03T13:12:24;5.60;;;3.90;;
50309;SDS011;36207;51.850;21.698;2022-08-03T13:14:54;5.50;;;3.50;;
50309;SDS011;36207;51.850;21.698;2022-08-03T13:17:22;6.60;;;3.90;;
50309;SDS011;36207;51.850;21.698;2022-08-03T13:19:48;6.60;;;3.90;;
50309;SDS011;36207;51.850;21.698;2022-08-03T13:22:16;5.10;;;4.00;;
50309;SDS011;36207;51.850;21.698;2022-08-03T13:24:44;4.60;;;3.80;;
50309;SDS011;36207;51.850;21.698;2022-08-03T13:27:13;4.90;;;3.70;;
50309;SDS011;36207;51.850;21.698;2022-08-03T13:29:39;5.70;;;3.90;;
50309;SDS011;36207;51.850;21.698;2022-08-03T13:32:08;13.20;;;4.40;;
50309;SDS011;36207;51.850;21.698;2022-08-03T13:34:36;6.30;;;4.40;;
50309;SDS011;36207;51.850;21.698;2022-08-03T13:37:02;5.50;;;4.00;;
50309;SDS011;36207;51.850;21.698;2022-08-03T13:39:29;5.10;;;3.70;;
50309;SDS011;36207;51.850;21.698;2022-08-03T13:41:55;5.70;;;3.90;;
50309;SDS011;36207;51.850;21.698;2022-08-03T13:44:22;5.50;;;3.80;;
50309;SDS011;36207;51.850;21.698;2022-08-03T13:46:48;4.80;;;3.70;;
50309;SDS011;36207;51.850;21.698;2022-08-03T13:49:15;4.60;;;3.70;;
50309;SDS011;36207;51.850;21.698;2022-08-03T13:51:41;4.50;;;3.80;;
50309;SDS011;36207;51.850;21.698;2022-08-03T13:54:08;4.30;;;3.90;;
50309;SDS011;36207;51.850;21.698;2022-08-03T13:56:34;11.20;;;4.10;;
50309;SDS011;36207;51.850;21.698;2022-08-03T13:59:00;7.60;;;3.70;;
50309;SDS011;36207;51.850;21.698;2022-08-03T14:01:27;4.40;;;3.70;;
50309;SDS011;36207;51.850;21.698;2022-08-03T14:03:53;5.60;;;3.70;;
50309;SDS011;36207;51.850;21.698;2022-08-03T14:06:21;7.30;;;3.90;;
50309;SDS011;36207;51.850;21.698;2022-08-03T14:08:49;4.70;;;4.20;;
50309;SDS011;36207;51.850;21.698;2022-08-03T14:11:16;7.00;;;4.20;;
50309;SDS011;36207;51.850;21.698;2022-08-03T14:13:43;4.80;;;4.00;;
50309;SDS011;36207;51.850;21.698;2022-08-03T14:16:10;4.40;;;4.00;;
50309;SDS011;36207;51.850;21.698;2022-08-03T14:18:36;4.90;;;4.10;;
50309;SDS011;36207;51.850;21.698;2022-08-03T14:21:03;4.60;;;4.10;;
50309;SDS011;36207;51.850;21.698;2022-08-03T14:23:31;5.60;;;4.10;;
50309;SDS011;36207;51.850;21.698;2022-08-03T14:25:58;6.20;;;4.20;;
50309;SDS011;36207;51.850;21.698;2022-08-03T14:28:24;4.70;;;3.70;;
50309;SDS011;36207;51.850;21.698;2022-08-03T14:30:51;7.80;;;4.20;;
50309;SDS011;36207;51.850;21.698;2022-08-03T14:33:21;4.60;;;3.90;;
50309;SDS011;36207;51.850;21.698;2022-08-03T14:35:48;6.90;;;4.00;;
50309;SDS011;36207;51.850;21.698;2022-08-03T14:38:16;4.40;;;4.00;;
50309;SDS011;36207;51.850;21.698;2022-08-03T14:40:43;4.50;;;3.90;;
50309;SDS011;36207;51.850;21.698;2022-08-03T14:43:10;4.80;;;4.10;;
50309;SDS011;36207;51.850;21.698;2022-08-03T14:45:37;4.80;;;4.10;;
50309;SDS011;36207;51.850;21.698;2022-08-03T14:48:04;4.20;;;3.80;;
50309;SDS011;36207;51.850;21.698;2022-08-03T14:50:31;4.10;;;3.80;;
50309;SDS011;36207;51.850;21.698;2022-08-03T14:52:57;4.20;;;3.80;;
50309;SDS011;36207;51.850;21.698;2022-08-03T14:55:24;6.80;;;3.80;;
50309;SDS011;36207;51.850;21.698;2022-08-03T14:57:50;4.00;;;3.70;;
50309;SDS011;36207;51.850;21.698;2022-08-03T15:00:16;6.50;;;3.90;;
50309;SDS011;36207;51.850;21.698;2022-08-03T15:02:43;4.80;;;3.90;;
50309;SDS011;36207;51.850;21.698;2022-08-03T15:05:09;4.50;;;4.10;;
50309;SDS011;36207;51.850;21.698;2022-08-03T15:07:37;6.60;;;3.70;;
50309;SDS011;36207;51.850;21.698;2022-08-03T15:10:04;7.80;;;3.90;;
50309;SDS011;36207;51.850;21.698;2022-08-03T15:12:30;4.90;;;4.10;;
50309;SDS011;36207;51.850;21.698;2022-08-03T15:14:57;4.90;;;3.70;;
50309;SDS011;36207;51.850;21.698;2022-08-03T15:17:23;4.30;;;3.90;;